Time,TemperatureF,DewpointF,PressureIn,WindDirection,WindDirectionDegrees,WindSpeedMPH,WindSpeedGustMPH,Humidity,HourlyPrecipIn,Conditions,Clouds,dailyrainin,SoftwareType,DateUTC
2013-04-01 00:00:00,63.8,55.0,30.03,SW,227,0.0,0.0,73,0.00,,---,0.00,VWS V14.00,2013-04-01 04:00:00,
2013-04-01 00:01:00,63.8,55.0,30.03,SW,228,0.0,0.0,73,0.00,,---,0.00,VWS V14.00,2013-04-01 04:01:00,
2013-04-01 00:03:00,63.9,55.1,30.03,SW,228,0.0,0.0,73,0.00,,---,0.00,VWS V14.00,2013-04-01 04:03:00,
2013-04-01 00:06:00,64.0,55.2,30.03,SW,227,0.0,0.0,73,0.00,,---,0.00,VWS V14.00,2013-04-01 04:06:00,
2013-04-01 00:11:00,64.3,55.1,30.02,SW,227,0.0,0.0,72,0.00,,---,0.00,VWS V14.00,2013-04-01 04:11:00,
2013-04-01 00:15:00,64.3,55.1,30.02,SW,227,0.0,0.0,72,0.00,,---,0.00,VWS V14.00,2013-04-01 04:15:00,
2013-04-01 00:20:00,64.2,55.4,30.03,SW,227,0.0,0.0,73,0.00,,---,0.00,VWS V14.00,2013-04-01 04:20:00,
2013-04-01 00:25:00,64.3,55.5,30.02,SW,228,0.0,0.0,73,0.00,,---,0.00,VWS V14.00,2013-04-01 04:25:00,
2013-04-01 00:30:00,64.1,55.3,30.02,SW,228,0.0,0.0,73,0.00,,---,0.00,VWS V14.00,2013-04-01 04:30:00,
2013-04-01 00:31:00,64.1,55.3,30.02,SW,228,0.0,0.0,73,0.00,,---,0.00,VWS V14.00,2013-04-01 04:31:00,
2013-04-01 00:36:00,63.9,55.5,30.02,SW,227,0.0,0.0,74,0.00,,---,0.00,VWS V14.00,2013-04-01 04:36:00,
2013-04-01 00:41:00,63.7,55.3,30.02,SW,228,0.0,0.0,74,0.00,,---,0.00,VWS V14.00,2013-04-01 04:41:00,
2013-04-01 00:46:00,63.5,55.4,30.02,SW,227,0.0,0.0,75,0.00,,---,0.00,VWS V14.00,2013-04-01 04:46:00,
2013-04-01 00:52:00,63.3,55.6,30.02,SW,227,0.0,0.0,76,0.00,,---,0.00,VWS V14.00,2013-04-01 04:52:00,
2013-04-01 00:57:00,63.1,55.8,30.02,SW,228,0.0,0.0,77,0.00,,---,0.00,VWS V14.00,2013-04-01 04:57:00,
2013-04-01 01:00:00,63.1,55.8,30.02,SW,228,0.0,0.0,77,0.00,,---,0.00,VWS V14.00,2013-04-01 05:00:00,
2013-04-01 01:02:00,63.1,55.8,30.02,SW,227,0.0,0.0,77,0.00,,---,0.00,VWS V14.00,2013-04-01 05:02:00,
2013-04-01 01:08:00,63.2,56.2,30.02,SW,227,0.0,0.0,78,0.00,,---,0.00,VWS V14.00,2013-04-01 05:08:00,
2013-04-01 01:13:00,63.3,56.3,30.02,SW,228,0.0,0.0,78,0.00,,---,0.00,VWS V14.00,2013-04-01 05:13:00,
2013-04-01 01:18:00,63.4,56.4,30.02,SW,227,0.0,0.0,78,0.00,,---,0.00,VWS V14.00,2013-04-01 05:18:00,
2013-04-01 01:23:00,63.4,56.4,30.02,SW,228,0.0,0.0,78,0.00,,---,0.00,VWS V14.00,2013-04-01 05:23:00,
2013-04-01 01:28:00,63.4,56.4,30.02,SW,227,0.0,0.0,78,0.00,,---,0.00,VWS V14.00,2013-04-01 05:28:00,
2013-04-01 01:30:00,63.4,56.4,30.02,SW,227,0.0,0.0,78,0.00,,---,0.00,VWS V14.00,2013-04-01 05:30:00,
2013-04-01 01:34:00,63.4,56.4,30.02,SW,227,0.0,0.0,78,0.00,,---,0.00,VWS V14.00,2013-04-01 05:34:00,
2013-04-01 01:39:00,63.3,56.3,30.02,SW,228,0.0,0.0,78,0.00,,---,0.00,VWS V14.00,2013-04-01 05:39:00,
2013-04-01 01:44:00,63.2,56.2,30.01,SW,227,0.0,0.0,78,0.00,,---,0.00,VWS V14.00,2013-04-01 05:44:00,
2013-04-01 01:49:00,63.1,56.5,30.01,SW,227,0.0,0.0,79,0.00,,---,0.00,VWS V14.00,2013-04-01 05:49:00,
2013-04-01 01:54:00,63.0,56.4,30.01,SW,228,0.0,0.0,79,0.00,,---,0.00,VWS V14.00,2013-04-01 05:54:00,
2013-04-01 02:00:00,63.1,56.8,30.01,SW,228,0.0,0.0,80,0.00,,---,0.00,VWS V14.00,2013-04-01 06:00:00,
2013-04-01 02:05:00,63.1,57.2,30.01,SW,228,0.0,0.0,81,0.00,,---,0.00,VWS V14.00,2013-04-01 06:05:00,
2013-04-01 02:11:00,63.4,57.5,30.01,SW,228,0.0,0.0,81,0.00,,---,0.00,VWS V14.00,2013-04-01 06:11:00,
2013-04-01 02:17:00,63.5,57.2,30.01,SW,228,0.0,0.0,80,0.00,,---,0.00,VWS V14.00,2013-04-01 06:17:00,
2013-04-01 02:22:00,63.7,57.8,30.01,SW,228,0.0,0.0,81,0.00,,---,0.00,VWS V14.00,2013-04-01 06:22:00,
2013-04-01 02:27:00,64.2,57.9,30.01,SW,227,0.0,0.0,80,0.00,,---,0.00,VWS V14.00,2013-04-01 06:27:00,
2013-04-01 02:30:00,64.5,58.2,30.01,SW,227,0.0,0.0,80,0.00,,---,0.00,VWS V14.00,2013-04-01 06:30:00,
2013-04-01 02:32:00,64.6,58.3,30.01,SW,227,0.0,0.0,80,0.00,,---,0.00,VWS V14.00,2013-04-01 06:32:00,
2013-04-01 02:38:00,64.9,58.2,30.00,SW,228,0.0,0.0,79,0.00,,---,0.00,VWS V14.00,2013-04-01 06:38:00,
2013-04-01 02:43:00,65.3,58.6,30.00,SW,228,0.0,0.0,79,0.00,,---,0.00,VWS V14.00,2013-04-01 06:43:00,
2013-04-01 02:48:00,65.6,58.6,30.00,SW,221,0.0,1.0,78,0.00,,---,0.00,VWS V14.00,2013-04-01 06:48:00,
2013-04-01 02:53:00,66.0,59.0,30.00,SW,221,0.0,1.0,78,0.00,,---,0.00,VWS V14.00,2013-04-01 06:53:00,
2013-04-01 02:59:00,66.2,58.8,30.00,SW,225,0.0,1.0,77,0.00,,---,0.00,VWS V14.00,2013-04-01 06:59:00,
2013-04-01 03:04:00,66.3,58.9,30.00,South,169,0.0,1.0,77,0.00,,---,0.00,VWS V14.00,2013-04-01 07:04:00,
2013-04-01 03:09:00,66.4,59.0,30.00,South,169,0.0,1.0,77,0.00,,---,0.00,VWS V14.00,2013-04-01 07:09:00,
2013-04-01 03:15:00,66.5,59.1,30.00,South,169,0.0,1.0,77,0.00,,---,0.00,VWS V14.00,2013-04-01 07:15:00,
2013-04-01 03:20:00,66.6,59.2,30.00,South,169,0.0,1.0,77,0.00,,---,0.00,VWS V14.00,2013-04-01 07:20:00,
2013-04-01 03:25:00,66.6,59.2,29.99,South,184,0.0,1.0,77,0.00,,---,0.00,VWS V14.00,2013-04-01 07:25:00,
2013-04-01 03:30:00,66.5,59.1,29.99,South,184,0.0,1.0,77,0.00,,---,0.00,VWS V14.00,2013-04-01 07:30:00,
2013-04-01 03:31:00,66.5,59.1,29.99,South,184,0.0,1.0,77,0.00,,---,0.00,VWS V14.00,2013-04-01 07:31:00,
2013-04-01 03:35:00,66.5,59.1,30.00,South,183,0.0,0.0,77,0.00,,---,0.00,VWS V14.00,2013-04-01 07:35:00,
2013-04-01 03:40:00,66.4,59.3,29.99,South,180,0.0,2.0,78,0.00,,---,0.00,VWS V14.00,2013-04-01 07:40:00,
2013-04-01 03:46:00,66.4,59.3,29.99,South,180,0.0,2.0,78,0.00,,---,0.00,VWS V14.00,2013-04-01 07:46:00,
2013-04-01 03:51:00,66.3,59.2,29.99,South,180,0.0,2.0,78,0.00,,---,0.00,VWS V14.00,2013-04-01 07:51:00,
2013-04-01 03:56:00,66.2,59.2,29.99,South,181,0.0,2.0,78,0.00,,---,0.00,VWS V14.00,2013-04-01 07:56:00,
2013-04-01 04:00:00,66.1,59.0,29.99,South,181,0.0,2.0,78,0.00,,---,0.00,VWS V14.00,2013-04-01 08:00:00,
2013-04-01 04:02:00,66.1,59.0,29.99,South,180,0.0,0.0,78,0.00,,---,0.00,VWS V14.00,2013-04-01 08:02:00,
2013-04-01 04:07:00,65.8,59.1,29.99,South,182,0.0,0.0,79,0.00,,---,0.00,VWS V14.00,2013-04-01 08:07:00,
2013-04-01 04:12:00,65.7,59.0,29.99,South,182,0.0,1.0,79,0.00,,---,0.00,VWS V14.00,2013-04-01 08:12:00,
2013-04-01 04:17:00,65.6,58.9,29.98,South,182,0.0,1.0,79,0.00,,---,0.00,VWS V14.00,2013-04-01 08:17:00,
2013-04-01 04:23:00,65.4,59.1,29.99,South,182,0.0,1.0,80,0.00,,---,0.00,VWS V14.00,2013-04-01 08:23:00,
2013-04-01 04:28:00,65.1,58.8,29.99,South,182,0.0,1.0,80,0.00,,---,0.00,VWS V14.00,2013-04-01 08:28:00,
2013-04-01 04:30:00,65.0,58.7,29.99,South,182,0.0,1.0,80,0.00,,---,0.00,VWS V14.00,2013-04-01 08:30:00,
2013-04-01 04:31:00,66.5,59.1,29.99,South,184,0.0,1.0,77,0.00,,,0.00,VWS V14.00,2013-04-01 08:31:00,
2013-04-01 04:33:00,64.9,58.6,29.99,South,182,0.0,0.0,80,0.00,,---,0.00,VWS V14.00,2013-04-01 08:33:00,
2013-04-01 04:38:00,64.5,58.5,29.99,South,182,0.0,0.0,81,0.00,,---,0.00,VWS V14.00,2013-04-01 08:38:00,
2013-04-01 04:44:00,64.3,58.3,29.99,South,182,0.0,0.0,81,0.00,,---,0.00,VWS V14.00,2013-04-01 08:44:00,
2013-04-01 04:49:00,64.0,58.4,29.99,South,182,0.0,0.0,82,0.00,,---,0.00,VWS V14.00,2013-04-01 08:49:00,
2013-04-01 04:54:00,63.7,58.1,29.98,South,182,0.0,0.0,82,0.00,,---,0.00,VWS V14.00,2013-04-01 08:54:00,
2013-04-01 04:59:00,63.5,58.2,29.98,South,182,0.0,0.0,83,0.00,,---,0.00,VWS V14.00,2013-04-01 08:59:00,
2013-04-01 05:00:00,63.4,58.2,29.98,South,182,0.0,0.0,83,0.00,,---,0.00,VWS V14.00,2013-04-01 09:00:00,
2013-04-01 05:05:00,63.2,58.0,29.97,South,182,0.0,0.0,83,0.00,,---,0.00,VWS V14.00,2013-04-01 09:05:00,
2013-04-01 05:10:00,63.0,58.1,29.98,South,182,0.0,0.0,84,0.00,,---,0.00,VWS V14.00,2013-04-01 09:10:00,
2013-04-01 05:15:00,62.7,57.8,29.98,South,182,0.0,0.0,84,0.00,,---,0.00,VWS V14.00,2013-04-01 09:15:00,
2013-04-01 05:20:00,62.7,58.1,29.98,South,182,0.0,0.0,85,0.00,,---,0.00,VWS V14.00,2013-04-01 09:20:00,
2013-04-01 05:25:00,62.6,58.0,29.98,South,182,0.0,0.0,85,0.00,,---,0.00,VWS V14.00,2013-04-01 09:25:00,
2013-04-01 05:30:00,62.6,58.4,29.98,South,182,0.0,0.0,86,0.00,,---,0.00,VWS V14.00,2013-04-01 09:30:00,
2013-04-01 05:35:00,62.6,58.4,29.99,South,182,0.0,0.0,86,0.00,,---,0.00,VWS V14.00,2013-04-01 09:35:00,
2013-04-01 05:41:00,62.7,58.5,29.99,South,183,0.0,0.0,86,0.00,,---,0.00,VWS V14.00,2013-04-01 09:41:00,
2013-04-01 05:47:00,62.8,58.6,29.99,South,183,0.0,0.0,86,0.00,,---,0.00,VWS V14.00,2013-04-01 09:47:00,
2013-04-01 05:52:00,62.8,58.6,29.99,South,183,0.0,0.0,86,0.00,,---,0.00,VWS V14.00,2013-04-01 09:52:00,
2013-04-01 05:57:00,62.9,58.7,29.99,South,183,0.0,1.0,86,0.00,,---,0.00,VWS V14.00,2013-04-01 09:57:00,
2013-04-01 06:00:00,62.9,58.7,29.99,South,183,0.0,1.0,86,0.00,,---,0.00,VWS V14.00,2013-04-01 10:00:00,
2013-04-01 06:02:00,62.9,58.7,29.99,South,183,0.0,0.0,86,0.00,,---,0.00,VWS V14.00,2013-04-01 10:02:00,
2013-04-01 06:07:00,63.1,58.8,29.99,South,183,0.0,0.0,86,0.00,,---,0.00,VWS V14.00,2013-04-01 10:07:00,
2013-04-01 06:13:00,63.1,58.8,29.99,South,183,0.0,0.0,86,0.00,,---,0.00,VWS V14.00,2013-04-01 10:13:00,
2013-04-01 06:18:00,63.1,58.8,29.99,South,183,0.0,0.0,86,0.00,,---,0.00,VWS V14.00,2013-04-01 10:18:00,
2013-04-01 06:23:00,63.0,58.8,29.99,South,183,0.0,0.0,86,0.00,,---,0.00,VWS V14.00,2013-04-01 10:23:00,
2013-04-01 06:29:00,62.8,58.6,30.00,South,183,0.0,0.0,86,0.00,,---,0.00,VWS V14.00,2013-04-01 10:29:00,
2013-04-01 06:30:00,62.7,58.5,30.00,South,183,0.0,0.0,86,0.00,,---,0.00,VWS V14.00,2013-04-01 10:30:00,
2013-04-01 06:34:00,62.7,58.8,30.00,South,183,0.0,0.0,87,0.00,,---,0.00,VWS V14.00,2013-04-01 10:34:00,
2013-04-01 06:39:00,62.6,59.3,30.00,South,183,0.0,0.0,89,0.00,,---,0.00,VWS V14.00,2013-04-01 10:39:00,
2013-04-01 06:44:00,62.5,58.6,30.00,South,183,0.0,0.0,87,0.00,,---,0.00,VWS V14.00,2013-04-01 10:44:00,
2013-04-01 06:49:00,62.4,58.5,30.00,South,183,0.0,0.0,87,0.00,,---,0.00,VWS V14.00,2013-04-01 10:49:00,
2013-04-01 06:54:00,62.3,58.4,30.00,South,183,0.0,0.0,87,0.00,,---,0.00,VWS V14.00,2013-04-01 10:54:00,
2013-04-01 07:00:00,62.1,58.5,30.00,South,183,0.0,0.0,88,0.00,,---,0.00,VWS V14.00,2013-04-01 11:00:00,
2013-04-01 07:05:00,62.0,58.4,30.00,South,183,0.0,0.0,88,0.00,,---,0.00,VWS V14.00,2013-04-01 11:05:00,
2013-04-01 07:10:00,62.0,58.4,30.00,South,183,0.0,0.0,88,0.00,,---,0.00,VWS V14.00,2013-04-01 11:10:00,
2013-04-01 07:16:00,61.9,58.3,30.01,South,183,0.0,0.0,88,0.00,,---,0.00,VWS V14.00,2013-04-01 11:16:00,
2013-04-01 07:21:00,62.0,58.7,30.01,South,183,0.0,0.0,89,0.00,,---,0.00,VWS V14.00,2013-04-01 11:21:00,
2013-04-01 07:26:00,62.0,58.7,30.01,South,183,0.0,0.0,89,0.00,,---,0.00,VWS V14.00,2013-04-01 11:26:00,
2013-04-01 07:30:00,62.1,58.8,30.01,South,183,0.0,0.0,89,0.00,,---,0.00,VWS V14.00,2013-04-01 11:30:00,
2013-04-01 07:31:00,62.1,58.8,30.01,South,183,0.0,0.0,89,0.00,,---,0.00,VWS V14.00,2013-04-01 11:31:00,
2013-04-01 07:37:00,62.3,59.0,30.01,South,183,0.0,0.0,89,0.00,,---,0.00,VWS V14.00,2013-04-01 11:37:00,
2013-04-01 07:43:00,62.3,59.0,30.01,South,183,0.0,0.0,89,0.00,,---,0.00,VWS V14.00,2013-04-01 11:43:00,
2013-04-01 07:48:00,62.3,59.0,30.01,South,183,0.0,0.0,89,0.00,,---,0.00,VWS V14.00,2013-04-01 11:48:00,
2013-04-01 07:53:00,62.5,59.5,30.01,South,183,0.0,0.0,90,0.00,,---,0.00,VWS V14.00,2013-04-01 11:53:00,
2013-04-01 07:58:00,62.7,59.7,30.02,South,183,0.0,0.0,90,0.00,,---,0.00,VWS V14.00,2013-04-01 11:58:00,
2013-04-01 08:00:00,62.7,59.7,30.02,South,183,0.0,0.0,90,0.00,,---,0.00,VWS V14.00,2013-04-01 12:00:00,
2013-04-01 08:04:00,62.8,59.8,30.02,South,183,0.0,0.0,90,0.00,,---,0.00,VWS V14.00,2013-04-01 12:04:00,
2013-04-01 08:09:00,62.9,59.9,30.02,South,183,0.0,0.0,90,0.00,,---,0.00,VWS V14.00,2013-04-01 12:09:00,
2013-04-01 08:14:00,63.1,60.1,30.02,South,183,0.0,0.0,90,0.00,,---,0.00,VWS V14.00,2013-04-01 12:14:00,
2013-04-01 08:19:00,63.3,60.3,30.03,South,183,0.0,0.0,90,0.00,,---,0.00,VWS V14.00,2013-04-01 12:19:00,
2013-04-01 08:24:00,63.5,60.5,30.03,South,183,0.0,0.0,90,0.00,,---,0.00,VWS V14.00,2013-04-01 12:24:00,
2013-04-01 08:30:00,63.8,60.8,30.03,South,183,0.0,0.0,90,0.00,,---,0.00,VWS V14.00,2013-04-01 12:30:00,
2013-04-01 08:35:00,64.1,61.1,30.03,South,183,0.0,0.0,90,0.00,,---,0.00,VWS V14.00,2013-04-01 12:35:00,
2013-04-01 08:40:00,64.5,61.5,30.03,South,183,0.0,0.0,90,0.00,,---,0.00,VWS V14.00,2013-04-01 12:40:00,
2013-04-01 08:45:00,64.8,61.8,30.03,South,183,0.0,0.0,90,0.00,,---,0.00,VWS V14.00,2013-04-01 12:45:00,
2013-04-01 08:51:00,65.2,61.9,30.03,South,183,0.0,0.0,89,0.00,,---,0.00,VWS V14.00,2013-04-01 12:51:00,
2013-04-01 08:56:00,65.7,62.4,30.03,South,183,0.0,1.0,89,0.00,,---,0.00,VWS V14.00,2013-04-01 12:56:00,
2013-04-01 09:00:00,66.3,62.7,30.03,South,170,0.0,4.0,88,0.00,,---,0.00,VWS V14.00,2013-04-01 13:00:00,
2013-04-01 09:01:00,66.3,63.0,30.03,South,169,0.0,4.0,89,0.00,,---,0.00,VWS V14.00,2013-04-01 13:01:00,
2013-04-01 09:06:00,66.9,63.2,30.03,SW,233,0.0,3.0,88,0.00,,---,0.00,VWS V14.00,2013-04-01 13:06:00,
2013-04-01 09:12:00,67.4,63.4,30.03,SSW,203,4.0,7.0,87,0.00,,---,0.00,VWS V14.00,2013-04-01 13:12:00,
2013-04-01 09:17:00,67.9,63.9,30.03,SW,218,0.0,7.0,87,0.00,,---,0.00,VWS V14.00,2013-04-01 13:17:00,
2013-04-01 09:22:00,68.5,64.2,30.03,SSW,198,0.0,7.0,86,0.00,,---,0.00,VWS V14.00,2013-04-01 13:22:00,
2013-04-01 09:27:00,69.2,64.5,30.03,WSW,238,0.0,7.0,85,0.00,,---,0.00,VWS V14.00,2013-04-01 13:27:00,
2013-04-01 09:30:00,69.7,64.7,30.03,SSW,192,0.0,7.0,84,0.00,,---,0.00,VWS V14.00,2013-04-01 13:30:00,
2013-04-01 09:32:00,69.7,64.7,30.03,SW,215,0.0,3.0,84,0.00,,---,0.00,VWS V14.00,2013-04-01 13:32:00,
2013-04-01 09:37:00,70.3,64.9,30.03,SSE,168,0.0,5.0,83,0.00,,---,0.00,VWS V14.00,2013-04-01 13:37:00,
2013-04-01 09:43:00,70.8,65.0,30.02,WSW,238,0.0,6.0,82,0.00,,---,0.00,VWS V14.00,2013-04-01 13:43:00,
2013-04-01 09:48:00,71.2,65.1,30.02,WSW,248,0.0,6.0,81,0.00,,---,0.00,VWS V14.00,2013-04-01 13:48:00,
2013-04-01 09:53:00,71.6,65.5,30.02,SSW,203,0.0,7.0,81,0.00,,---,0.00,VWS V14.00,2013-04-01 13:53:00,
2013-04-01 09:58:00,71.9,65.4,30.02,South,184,0.0,10.0,80,0.00,,---,0.00,VWS V14.00,2013-04-01 13:58:00,
2013-04-01 10:00:00,72.0,65.1,30.02,West,263,4.0,10.0,79,0.00,,---,0.00,VWS V14.00,2013-04-01 14:00:00,
2013-04-01 10:04:00,72.1,65.2,30.02,SW,234,2.0,9.0,79,0.00,,---,0.00,VWS V14.00,2013-04-01 14:04:00,
2013-04-01 10:09:00,72.4,65.2,30.02,SSW,196,3.0,11.0,78,0.00,,---,0.00,VWS V14.00,2013-04-01 14:09:00,
2013-04-01 10:14:00,72.6,65.0,30.02,South,182,0.0,11.0,77,0.00,,---,0.00,VWS V14.00,2013-04-01 14:14:00,
2013-04-01 10:20:00,72.8,64.4,30.02,WSW,252,0.0,11.0,75,0.00,,---,0.00,VWS V14.00,2013-04-01 14:20:00,
2013-04-01 10:25:00,73.1,64.7,30.01,WSW,256,0.0,11.0,75,0.00,,---,0.00,VWS V14.00,2013-04-01 14:25:00,
2013-04-01 10:30:00,73.6,65.2,30.01,SSW,211,2.0,11.0,75,0.00,,---,0.00,VWS V14.00,2013-04-01 14:30:00,
2013-04-01 10:35:00,74.1,64.1,30.01,WSW,250,4.0,9.0,71,0.00,,---,0.00,VWS V14.00,2013-04-01 14:35:00,
2013-04-01 10:40:00,74.4,64.4,30.02,SW,225,0.0,9.0,71,0.00,,---,0.00,VWS V14.00,2013-04-01 14:40:00,
2013-04-01 10:46:00,74.9,64.1,30.01,South,191,6.0,9.0,69,0.00,,---,0.00,VWS V14.00,2013-04-01 14:46:00,
2013-04-01 10:51:00,75.2,63.9,30.02,SSW,210,0.0,10.0,68,0.00,,---,0.00,VWS V14.00,2013-04-01 14:51:00,
2013-04-01 10:56:00,75.4,63.7,30.01,SW,236,0.0,10.0,67,0.00,,---,0.00,VWS V14.00,2013-04-01 14:56:00,
2013-04-01 11:00:00,75.7,63.5,30.01,West,271,1.0,10.0,66,0.00,,---,0.00,VWS V14.00,2013-04-01 15:00:00,
2013-04-01 11:01:00,75.7,63.5,30.01,West,271,1.0,10.0,66,0.00,,---,0.00,VWS V14.00,2013-04-01 15:01:00,
2013-04-01 11:06:00,76.1,63.5,30.01,SSW,213,3.0,7.0,65,0.00,,---,0.00,VWS V14.00,2013-04-01 15:06:00,
2013-04-01 11:12:00,76.5,63.9,30.01,WSW,253,7.0,9.0,65,0.00,,---,0.00,VWS V14.00,2013-04-01 15:12:00,
2013-04-01 11:17:00,76.9,63.8,30.01,SW,235,1.0,9.0,64,0.00,,---,0.00,VWS V14.00,2013-04-01 15:17:00,
2013-04-01 11:23:00,77.3,63.3,30.01,SW,214,7.0,9.0,62,0.00,,---,0.00,VWS V14.00,2013-04-01 15:23:00,
2013-04-01 11:28:00,77.7,63.7,30.01,WSW,241,0.0,13.0,62,0.00,,---,0.00,VWS V14.00,2013-04-01 15:28:00,
2013-04-01 11:30:00,78.0,63.9,30.01,SE,129,0.0,13.0,62,0.00,,---,0.00,VWS V14.00,2013-04-01 15:30:00,
2013-04-01 11:33:00,78.4,64.3,30.01,SSE,156,5.0,6.0,62,0.00,,---,0.00,VWS V14.00,2013-04-01 15:33:00,
2013-04-01 11:38:00,78.9,63.8,30.01,SSW,196,0.0,11.0,60,0.00,,---,0.00,VWS V14.00,2013-04-01 15:38:00,
2013-04-01 11:44:00,79.0,63.9,30.01,West,259,2.0,11.0,60,0.00,,---,0.00,VWS V14.00,2013-04-01 15:44:00,
2013-04-01 11:49:00,79.1,64.0,30.01,WSW,242,6.0,12.0,60,0.00,,---,0.00,VWS V14.00,2013-04-01 15:49:00,
2013-04-01 11:54:00,78.7,63.2,30.01,South,189,0.0,12.0,59,0.00,,---,0.00,VWS V14.00,2013-04-01 15:54:00,
2013-04-01 11:59:00,78.7,63.2,30.00,SSW,205,6.0,14.0,59,0.00,,---,0.00,VWS V14.00,2013-04-01 15:59:00,
2013-04-01 12:00:00,78.7,63.2,30.01,WSW,249,7.0,14.0,59,0.00,,---,0.00,VWS V14.00,2013-04-01 16:00:00,
2013-04-01 12:04:00,79.1,63.6,30.01,SW,226,0.0,12.0,59,0.00,,---,0.00,VWS V14.00,2013-04-01 16:04:00,
2013-04-01 12:10:00,79.4,63.3,30.00,West,276,3.0,13.0,58,0.00,,---,0.00,VWS V14.00,2013-04-01 16:10:00,
2013-04-01 12:15:00,79.4,62.9,30.00,WSW,240,0.0,13.0,57,0.00,,---,0.00,VWS V14.00,2013-04-01 16:15:00,
2013-04-01 12:20:00,79.6,62.5,30.00,WSW,254,3.0,13.0,56,0.00,,---,0.00,VWS V14.00,2013-04-01 16:20:00,
2013-04-01 12:26:00,79.4,62.3,30.00,SSE,165,0.0,16.0,56,0.00,,---,0.00,VWS V14.00,2013-04-01 16:26:00,
2013-04-01 12:30:00,79.4,62.8,30.00,SW,223,4.0,16.0,57,0.00,,---,0.00,VWS V14.00,2013-04-01 16:30:00,
2013-04-01 12:31:00,79.4,62.9,30.00,SW,223,4.0,16.0,57,0.00,,---,0.00,VWS V14.00,2013-04-01 16:31:00,
2013-04-01 12:37:00,79.5,62.5,30.00,West,265,5.0,13.0,56,0.00,,---,0.00,VWS V14.00,2013-04-01 16:37:00,
2013-04-01 12:42:00,79.8,62.7,30.00,WSW,242,6.0,13.0,56,0.00,,---,0.00,VWS V14.00,2013-04-01 16:42:00,
2013-04-01 12:47:00,80.5,62.9,29.99,SSW,202,4.0,13.0,55,0.00,,---,0.00,VWS V14.00,2013-04-01 16:47:00,
2013-04-01 12:53:00,81.2,63.5,29.99,WSW,253,1.0,13.0,55,0.00,,---,0.00,VWS V14.00,2013-04-01 16:53:00,
2013-04-01 12:58:00,81.9,63.1,29.99,SW,232,0.0,13.0,53,0.00,,---,0.00,VWS V14.00,2013-04-01 16:58:00,
2013-04-01 13:00:00,82.1,63.3,29.99,WSW,254,2.0,13.0,53,0.00,,---,0.00,VWS V14.00,2013-04-01 17:00:00,
2013-04-01 13:03:00,82.1,62.8,29.99,SW,236,2.0,10.0,52,0.00,,---,0.00,VWS V14.00,2013-04-01 17:03:00,
2013-04-01 13:08:00,82.7,63.3,29.99,WSW,258,5.0,10.0,52,0.00,,---,0.00,VWS V14.00,2013-04-01 17:08:00,
2013-04-01 13:14:00,82.8,62.8,29.99,SW,220,0.0,10.0,51,0.00,,---,0.00,VWS V14.00,2013-04-01 17:14:00,
2013-04-01 13:19:00,82.3,62.9,29.98,SW,228,3.0,14.0,52,0.00,,---,0.00,VWS V14.00,2013-04-01 17:19:00,
2013-04-01 13:24:00,81.8,62.5,29.98,WSW,257,2.0,14.0,52,0.00,,---,0.00,VWS V14.00,2013-04-01 17:24:00,
2013-04-01 13:29:00,81.4,63.2,29.98,SW,221,0.0,14.0,54,0.00,,---,0.00,VWS V14.00,2013-04-01 17:29:00,
2013-04-01 13:30:00,81.5,62.7,29.98,SW,229,0.0,14.0,53,0.00,,---,0.00,VWS V14.00,2013-04-01 17:30:00,
2013-04-01 13:35:00,81.8,63.0,29.97,WSW,244,0.0,11.0,53,0.00,,---,0.00,VWS V14.00,2013-04-01 17:35:00,
2013-04-01 13:40:00,82.1,63.8,29.97,South,173,0.0,12.0,54,0.00,,---,0.00,VWS V14.00,2013-04-01 17:40:00,
2013-04-01 13:45:00,82.7,63.3,29.97,SW,217,10.0,14.0,52,0.00,,---,0.00,VWS V14.00,2013-04-01 17:45:00,
2013-04-01 13:50:00,82.7,63.3,29.97,SW,236,6.0,14.0,52,0.00,,---,0.00,VWS V14.00,2013-04-01 17:50:00,
2013-04-01 13:56:00,82.3,63.5,29.97,WSW,238,0.0,14.0,53,0.00,,---,0.00,VWS V14.00,2013-04-01 17:56:00,
2013-04-01 14:00:00,82.2,63.4,29.97,SSW,201,0.0,14.0,53,0.00,,---,0.00,VWS V14.00,2013-04-01 18:00:00,
2013-04-01 14:01:00,82.2,63.4,29.97,WSW,251,0.0,14.0,53,0.00,,---,0.00,VWS V14.00,2013-04-01 18:01:00,
2013-04-01 14:06:00,83.4,64.0,29.97,SSW,211,2.0,12.0,52,0.00,,---,0.00,VWS V14.00,2013-04-01 18:06:00,
2013-04-01 14:12:00,83.6,64.1,29.96,SW,223,6.0,13.0,52,0.00,,---,0.00,VWS V14.00,2013-04-01 18:12:00,
2013-04-01 14:17:00,84.0,63.4,29.96,WSW,242,7.0,13.0,50,0.00,,---,0.00,VWS V14.00,2013-04-01 18:17:00,
2013-04-01 14:22:00,84.0,63.4,29.96,SSW,197,3.0,13.0,50,0.00,,---,0.00,VWS V14.00,2013-04-01 18:22:00,
2013-04-01 14:27:00,84.3,62.5,29.96,SW,225,10.0,13.0,48,0.00,,---,0.00,VWS V14.00,2013-04-01 18:27:00,
2013-04-01 14:30:00,84.2,62.4,29.96,WSW,242,0.0,13.0,48,0.00,,---,0.00,VWS V14.00,2013-04-01 18:30:00,
2013-04-01 14:33:00,84.3,63.1,29.95,SW,215,6.0,9.0,49,0.00,,---,0.00,VWS V14.00,2013-04-01 18:33:00,
2013-04-01 14:38:00,84.2,62.4,29.95,South,183,8.0,14.0,48,0.00,,---,0.00,VWS V14.00,2013-04-01 18:38:00,
2013-04-01 14:43:00,83.6,62.4,29.95,SSW,203,0.0,14.0,49,0.00,,---,0.00,VWS V14.00,2013-04-01 18:43:00,
2013-04-01 14:48:00,84.1,62.9,29.95,WSW,240,5.0,14.0,49,0.00,,---,0.00,VWS V14.00,2013-04-01 18:48:00,
2013-04-01 14:54:00,84.3,63.1,29.95,SW,234,5.0,14.0,49,0.00,,---,0.00,VWS V14.00,2013-04-01 18:54:00,
2013-04-01 14:59:00,83.8,62.0,29.95,WSW,245,7.0,14.0,48,0.00,,---,0.00,VWS V14.00,2013-04-01 18:59:00,
2013-04-01 15:00:00,83.6,62.4,29.95,SW,233,3.0,14.0,49,0.00,,---,0.00,VWS V14.00,2013-04-01 19:00:00,
2013-04-01 15:04:00,83.3,62.2,29.95,SSW,195,2.0,11.0,49,0.00,,---,0.00,VWS V14.00,2013-04-01 19:04:00,
2013-04-01 15:09:00,83.5,62.3,29.95,NNW,337,0.0,14.0,49,0.00,,---,0.00,VWS V14.00,2013-04-01 19:09:00,
2013-04-01 15:15:00,83.4,61.7,29.95,WSW,246,0.0,14.0,48,0.00,,---,0.00,VWS V14.00,2013-04-01 19:15:00,
2013-04-01 15:20:00,83.8,61.4,29.94,South,182,0.0,14.0,47,0.00,,---,0.00,VWS V14.00,2013-04-01 19:20:00,
2013-04-01 15:25:00,84.3,62.5,29.94,West,260,2.0,14.0,48,0.00,,---,0.00,VWS V14.00,2013-04-01 19:25:00,
2013-04-01 15:30:00,85.0,62.5,29.94,WSW,240,0.0,14.0,47,0.00,,---,0.00,VWS V14.00,2013-04-01 19:30:00,
2013-04-01 15:35:00,85.0,61.9,29.94,West,261,4.0,16.0,46,0.00,,---,0.00,VWS V14.00,2013-04-01 19:35:00,
2013-04-01 15:41:00,84.8,62.3,29.94,NW,313,4.0,16.0,47,0.00,,---,0.00,VWS V14.00,2013-04-01 19:41:00,
2013-04-01 15:46:00,85.0,61.9,29.94,WSW,246,0.0,16.0,46,0.00,,---,0.00,VWS V14.00,2013-04-01 19:46:00,
2013-04-01 15:51:00,85.2,62.7,29.94,SSW,194,0.0,16.0,47,0.00,,---,0.00,VWS V14.00,2013-04-01 19:51:00,
2013-04-01 15:57:00,85.6,61.8,29.94,SSW,198,0.0,16.0,45,0.00,,---,0.00,VWS V14.00,2013-04-01 19:57:00,
2013-04-01 16:00:00,85.6,61.8,29.94,West,278,0.0,16.0,45,0.00,,---,0.00,VWS V14.00,2013-04-01 20:00:00,
2013-04-01 16:02:00,85.6,61.8,29.94,SSW,212,0.0,1.0,45,0.00,,---,0.00,VWS V14.00,2013-04-01 20:02:00,
2013-04-01 16:07:00,85.6,61.8,29.93,SW,232,6.0,13.0,45,0.00,,---,0.00,VWS V14.00,2013-04-01 20:07:00,
2013-04-01 16:12:00,85.7,61.9,29.93,SSW,205,8.0,13.0,45,0.00,,---,0.00,VWS V14.00,2013-04-01 20:12:00,
2013-04-01 16:18:00,85.2,62.1,29.93,SSW,205,3.0,13.0,46,0.00,,---,0.00,VWS V14.00,2013-04-01 20:18:00,
2013-04-01 16:23:00,85.3,62.2,29.93,South,183,0.0,13.0,46,0.00,,---,0.00,VWS V14.00,2013-04-01 20:23:00,
2013-04-01 16:28:00,84.9,62.4,29.93,SSE,152,4.0,14.0,47,0.00,,---,0.00,VWS V14.00,2013-04-01 20:28:00,
2013-04-01 16:30:00,84.6,61.6,29.93,West,260,8.0,16.0,46,0.00,,---,0.00,VWS V14.00,2013-04-01 20:30:00,
2013-04-01 16:33:00,84.2,61.8,29.93,WSW,244,7.0,15.0,47,0.00,,---,0.00,VWS V14.00,2013-04-01 20:33:00,
2013-04-01 16:38:00,83.5,61.2,29.93,SSW,209,9.0,17.0,47,0.00,,---,0.00,VWS V14.00,2013-04-01 20:38:00,
2013-04-01 16:44:00,83.8,60.8,29.93,West,265,9.0,17.0,46,0.00,,---,0.00,VWS V14.00,2013-04-01 20:44:00,
2013-04-01 16:49:00,83.9,60.9,29.93,SW,229,3.0,17.0,46,0.00,,---,0.00,VWS V14.00,2013-04-01 20:49:00,
2013-04-01 16:54:00,84.1,61.7,29.94,SW,234,4.0,17.0,47,0.00,,---,0.00,VWS V14.00,2013-04-01 20:54:00,
2013-04-01 16:59:00,83.6,61.3,29.94,SSW,202,1.0,17.0,47,0.00,,---,0.00,VWS V14.00,2013-04-01 20:59:00,
2013-04-01 17:00:00,83.6,61.3,29.94,SSE,167,5.0,17.0,47,0.00,,---,0.00,VWS V14.00,2013-04-01 21:00:00,
2013-04-01 17:04:00,83.6,61.3,29.94,WSW,242,9.0,11.0,47,0.00,,---,0.00,VWS V14.00,2013-04-01 21:04:00,
2013-04-01 17:09:00,83.2,60.9,29.94,WSW,249,3.0,13.0,47,0.00,,---,0.00,VWS V14.00,2013-04-01 21:09:00,
2013-04-01 17:14:00,82.5,60.3,29.94,WSW,249,1.0,15.0,47,0.00,,---,0.00,VWS V14.00,2013-04-01 21:14:00,
2013-04-01 17:20:00,82.8,60.5,29.93,SW,219,9.0,15.0,47,0.00,,---,0.00,VWS V14.00,2013-04-01 21:20:00,
2013-04-01 17:25:00,82.8,60.5,29.93,West,263,0.0,15.0,47,0.00,,---,0.00,VWS V14.00,2013-04-01 21:25:00,
2013-04-01 17:30:00,83.0,60.7,29.93,SW,232,3.0,15.0,47,0.00,,---,0.00,VWS V14.00,2013-04-01 21:30:00,
2013-04-01 17:35:00,82.8,60.5,29.94,SW,231,1.0,12.0,47,0.00,,---,0.00,VWS V14.00,2013-04-01 21:35:00,
2013-04-01 17:40:00,82.6,61.5,29.93,SW,217,0.0,12.0,49,0.00,,---,0.00,VWS V14.00,2013-04-01 21:40:00,
2013-04-01 17:46:00,82.1,61.1,29.93,SSW,196,0.0,14.0,49,0.00,,---,0.00,VWS V14.00,2013-04-01 21:46:00,
2013-04-01 17:51:00,81.6,61.2,29.93,WSW,244,0.0,14.0,50,0.00,,---,0.00,VWS V14.00,2013-04-01 21:51:00,
2013-04-01 17:56:00,81.4,61.0,29.93,SW,217,0.0,14.0,50,0.00,,---,0.00,VWS V14.00,2013-04-01 21:56:00,
2013-04-01 18:00:00,81.1,60.7,29.93,West,261,6.0,14.0,50,0.00,,---,0.00,VWS V14.00,2013-04-01 22:00:00,
2013-04-01 18:01:00,81.1,60.7,29.93,West,261,6.0,14.0,50,0.00,,---,0.00,VWS V14.00,2013-04-01 22:01:00,
2013-04-01 18:06:00,80.8,61.0,29.93,SW,235,6.0,13.0,51,0.00,,---,0.00,VWS V14.00,2013-04-01 22:06:00,
2013-04-01 18:11:00,80.8,61.0,29.94,SW,235,10.0,13.0,51,0.00,,---,0.00,VWS V14.00,2013-04-01 22:11:00,
2013-04-01 18:17:00,80.5,61.3,29.93,WNW,293,7.0,13.0,52,0.00,,---,0.00,VWS V14.00,2013-04-01 22:17:00,
2013-04-01 18:22:00,80.3,61.1,29.93,WSW,244,5.0,13.0,52,0.00,,---,0.00,VWS V14.00,2013-04-01 22:22:00,
2013-04-01 18:27:00,80.1,61.4,29.93,South,184,6.0,13.0,53,0.00,,---,0.00,VWS V14.00,2013-04-01 22:27:00,
2013-04-01 18:30:00,79.9,61.8,29.93,SW,221,6.0,13.0,54,0.00,,---,0.00,VWS V14.00,2013-04-01 22:30:00,
2013-04-01 18:32:00,79.9,61.8,29.93,North,355,9.0,9.0,54,0.00,,---,0.00,VWS V14.00,2013-04-01 22:32:00,
2013-04-01 18:37:00,79.7,62.1,29.94,SW,227,2.0,9.0,55,0.00,,---,0.00,VWS V14.00,2013-04-01 22:37:00,
2013-04-01 18:43:00,79.7,62.1,29.94,SW,227,0.0,9.0,55,0.00,,---,0.00,VWS V14.00,2013-04-01 22:43:00,
2013-04-01 18:48:00,79.6,62.0,29.94,WSW,256,0.0,9.0,55,0.00,,---,0.00,VWS V14.00,2013-04-01 22:48:00,
2013-04-01 18:53:00,79.5,62.5,29.94,SW,223,0.0,9.0,56,0.00,,---,0.00,VWS V14.00,2013-04-01 22:53:00,
2013-04-01 18:58:00,78.9,62.4,29.94,SW,234,0.0,11.0,57,0.00,,---,0.00,VWS V14.00,2013-04-01 22:58:00,
2013-04-01 19:00:00,78.7,62.2,29.95,WSW,238,1.0,11.0,57,0.00,,---,0.00,VWS V14.00,2013-04-01 23:00:00,
2013-04-01 19:03:00,78.5,62.5,29.95,West,267,0.0,7.0,58,0.00,,---,0.00,VWS V14.00,2013-04-01 23:03:00,
2013-04-01 19:09:00,78.2,62.2,29.95,WSW,245,1.0,9.0,58,0.00,,---,0.00,VWS V14.00,2013-04-01 23:09:00,
2013-04-01 19:14:00,77.9,62.4,29.95,WSW,248,0.0,9.0,59,0.00,,---,0.00,VWS V14.00,2013-04-01 23:14:00,
2013-04-01 19:19:00,77.7,62.2,29.95,NW,319,0.0,9.0,59,0.00,,---,0.00,VWS V14.00,2013-04-01 23:19:00,
2013-04-01 19:24:00,77.5,62.5,29.95,WSW,246,0.0,10.0,60,0.00,,---,0.00,VWS V14.00,2013-04-01 23:24:00,
2013-04-01 19:30:00,77.3,62.3,29.95,SW,227,1.0,10.0,60,0.00,,---,0.00,VWS V14.00,2013-04-01 23:30:00,
2013-04-01 19:35:00,77.0,62.5,29.95,SW,221,1.0,1.0,61,0.00,,---,0.00,VWS V14.00,2013-04-01 23:35:00,
2013-04-01 19:40:00,76.7,62.7,29.95,SW,234,2.0,6.0,62,0.00,,---,0.00,VWS V14.00,2013-04-01 23:40:00,
2013-04-01 19:45:00,76.4,62.4,29.95,SW,225,0.0,6.0,62,0.00,,---,0.00,VWS V14.00,2013-04-01 23:45:00,
2013-04-01 19:50:00,76.1,62.6,29.96,SW,227,0.0,6.0,63,0.00,,---,0.00,VWS V14.00,2013-04-01 23:50:00,
2013-04-01 19:55:00,75.9,62.4,29.96,SW,224,0.0,9.0,63,0.00,,---,0.00,VWS V14.00,2013-04-01 23:55:00,
2013-04-01 20:00:00,75.7,62.7,29.96,SW,234,0.0,9.0,64,0.00,,---,0.00,VWS V14.00,2013-04-02 00:00:00,
2013-04-01 20:06:00,75.5,62.5,29.96,WSW,238,0.0,4.0,64,0.00,,---,0.00,VWS V14.00,2013-04-02 00:06:00,
2013-04-01 20:12:00,75.3,62.7,29.96,SW,218,0.0,4.0,65,0.00,,---,0.00,VWS V14.00,2013-04-02 00:12:00,
2013-04-01 20:17:00,75.1,62.5,29.96,SW,227,0.0,4.0,65,0.00,,---,0.00,VWS V14.00,2013-04-02 00:17:00,
2013-04-01 20:22:00,74.9,62.8,29.96,SW,227,0.0,4.0,66,0.00,,---,0.00,VWS V14.00,2013-04-02 00:22:00,
2013-04-01 20:27:00,74.8,62.7,29.97,SW,234,0.0,4.0,66,0.00,,---,0.00,VWS V14.00,2013-04-02 00:27:00,
2013-04-01 20:30:00,74.7,63.0,29.97,SW,230,0.0,4.0,67,0.00,,---,0.00,VWS V14.00,2013-04-02 00:30:00,
2013-04-01 20:32:00,74.6,62.9,29.97,WSW,240,0.0,0.0,67,0.00,,---,0.00,VWS V14.00,2013-04-02 00:32:00,
2013-04-01 20:37:00,74.4,63.2,29.97,SW,222,0.0,4.0,68,0.00,,---,0.00,VWS V14.00,2013-04-02 00:37:00,
2013-04-01 20:43:00,74.2,63.0,29.97,SW,235,0.0,4.0,68,0.00,,---,0.00,VWS V14.00,2013-04-02 00:43:00,
2013-04-01 20:48:00,74.0,63.2,29.97,WSW,241,0.0,4.0,69,0.00,,---,0.00,VWS V14.00,2013-04-02 00:48:00,
2013-04-01 20:53:00,73.8,63.0,29.97,SW,223,0.0,4.0,69,0.00,,---,0.00,VWS V14.00,2013-04-02 00:53:00,
2013-04-01 20:59:00,73.6,63.2,29.97,SW,222,0.0,4.0,70,0.00,,---,0.00,VWS V14.00,2013-04-02 00:59:00,
2013-04-01 21:00:00,73.5,63.1,29.97,WSW,241,0.0,4.0,70,0.00,,---,0.00,VWS V14.00,2013-04-02 01:00:00,
2013-04-01 21:04:00,73.5,63.5,29.97,SW,225,0.0,2.0,71,0.00,,---,0.00,VWS V14.00,2013-04-02 01:04:00,
2013-04-01 21:09:00,73.3,63.3,29.97,SW,230,0.0,2.0,71,0.00,,---,0.00,VWS V14.00,2013-04-02 01:09:00,
2013-04-01 21:14:00,73.1,63.5,29.98,WSW,240,0.0,3.0,72,0.00,,---,0.00,VWS V14.00,2013-04-02 01:14:00,
2013-04-01 21:19:00,72.9,63.3,29.98,SW,223,5.0,6.0,72,0.00,,---,0.00,VWS V14.00,2013-04-02 01:19:00,
2013-04-01 21:25:00,72.8,63.7,29.98,SW,232,0.0,6.0,73,0.00,,---,0.00,VWS V14.00,2013-04-02 01:25:00,
2013-04-01 21:30:00,72.6,63.5,29.98,WSW,238,0.0,6.0,73,0.00,,---,0.00,VWS V14.00,2013-04-02 01:30:00,
2013-04-01 21:35:00,72.5,63.8,29.99,WSW,238,0.0,1.0,74,0.00,,---,0.00,VWS V14.00,2013-04-02 01:35:00,
2013-04-01 21:40:00,72.3,63.6,29.99,SW,222,0.0,3.0,74,0.00,,---,0.00,VWS V14.00,2013-04-02 01:40:00,
2013-04-01 21:45:00,72.1,63.8,29.99,SW,222,0.0,3.0,75,0.00,,---,0.00,VWS V14.00,2013-04-02 01:45:00,
2013-04-01 21:51:00,71.8,63.5,29.99,SW,225,0.0,3.0,75,0.00,,---,0.00,VWS V14.00,2013-04-02 01:51:00,
2013-04-01 21:56:00,71.6,63.6,29.99,SW,218,0.0,3.0,76,0.00,,---,0.00,VWS V14.00,2013-04-02 01:56:00,
2013-04-01 22:00:00,71.4,63.5,29.99,WSW,244,3.0,3.0,76,0.00,,---,0.00,VWS V14.00,2013-04-02 02:00:00,
2013-04-01 22:01:00,71.4,63.5,29.99,WSW,244,3.0,3.0,76,0.00,,---,0.00,VWS V14.00,2013-04-02 02:01:00,
2013-04-01 22:06:00,71.3,63.3,29.99,SW,234,0.0,5.0,76,0.00,,---,0.00,VWS V14.00,2013-04-02 02:06:00,
2013-04-01 22:12:00,71.3,63.7,30.00,WSW,244,0.0,5.0,77,0.00,,---,0.00,VWS V14.00,2013-04-02 02:12:00,
2013-04-01 22:17:00,71.2,63.6,30.00,SW,229,0.0,5.0,77,0.00,,---,0.00,VWS V14.00,2013-04-02 02:17:00,
2013-04-01 22:22:00,71.0,63.4,30.00,SW,227,0.0,5.0,77,0.00,,---,0.00,VWS V14.00,2013-04-02 02:22:00,
2013-04-01 22:27:00,70.8,63.6,30.00,WSW,245,0.0,5.0,78,0.00,,---,0.00,VWS V14.00,2013-04-02 02:27:00,
2013-04-01 22:30:00,70.7,63.5,30.00,SW,225,0.0,5.0,78,0.00,,---,0.00,VWS V14.00,2013-04-02 02:30:00,
2013-04-01 22:33:00,70.6,63.4,30.00,SW,225,0.0,1.0,78,0.00,,---,0.00,VWS V14.00,2013-04-02 02:33:00,
2013-04-01 22:38:00,70.4,63.6,30.00,SW,225,0.0,1.0,79,0.00,,---,0.00,VWS V14.00,2013-04-02 02:38:00,
2013-04-01 22:43:00,70.3,63.5,30.00,SW,225,0.0,1.0,79,0.00,,---,0.00,VWS V14.00,2013-04-02 02:43:00,
2013-04-01 22:48:00,70.1,63.3,30.00,SW,229,0.0,1.0,79,0.00,,---,0.00,VWS V14.00,2013-04-02 02:48:00,
2013-04-01 22:54:00,69.9,63.5,30.00,WSW,246,0.0,1.0,80,0.00,,---,0.00,VWS V14.00,2013-04-02 02:54:00,
2013-04-01 22:59:00,69.7,63.3,30.00,SSW,207,0.0,1.0,80,0.00,,---,0.00,VWS V14.00,2013-04-02 02:59:00,
2013-04-01 23:00:00,69.6,63.2,30.00,SSW,202,0.0,1.0,80,0.00,,---,0.00,VWS V14.00,2013-04-02 03:00:00,
2013-04-01 23:04:00,69.5,63.4,30.00,SW,217,0.0,0.0,81,0.00,,---,0.00,VWS V14.00,2013-04-02 03:04:00,
2013-04-01 23:09:00,69.4,63.3,30.00,SW,217,0.0,0.0,81,0.00,,---,0.00,VWS V14.00,2013-04-02 03:09:00,
2013-04-01 23:14:00,69.2,63.1,30.00,SW,217,0.0,0.0,81,0.00,,---,0.00,VWS V14.00,2013-04-02 03:14:00,
2013-04-01 23:20:00,69.0,63.3,30.00,SW,217,0.0,1.0,82,0.00,,---,0.00,VWS V14.00,2013-04-02 03:20:00,
2013-04-01 23:25:00,68.8,63.1,30.00,SW,217,0.0,1.0,82,0.00,,---,0.00,VWS V14.00,2013-04-02 03:25:00,
2013-04-01 23:30:00,68.7,63.0,30.00,SW,217,0.0,1.0,82,0.00,,---,0.00,VWS V14.00,2013-04-02 03:30:00,
2013-04-01 23:36:00,68.6,63.2,30.00,SW,225,0.0,1.0,83,0.00,,---,0.00,VWS V14.00,2013-04-02 03:36:00,
2013-04-01 23:41:00,68.5,63.1,30.00,WSW,238,0.0,2.0,83,0.00,,---,0.00,VWS V14.00,2013-04-02 03:41:00,
2013-04-01 23:47:00,68.4,63.4,30.00,WSW,238,0.0,2.0,84,0.00,,---,0.00,VWS V14.00,2013-04-02 03:47:00,
2013-04-01 23:52:00,68.3,63.3,30.00,SW,217,0.0,3.0,84,0.00,,---,0.00,VWS V14.00,2013-04-02 03:52:00,
2013-04-01 23:57:00,68.1,63.1,30.00,SW,234,0.0,3.0,84,0.00,,---,0.00,VWS V14.00,2013-04-02 03:57:00,